createdAt,value
2018-06-15T00:00:35.037Z,46.00
2018-06-15T00:01:40.039Z,45.90
2018-06-15T00:02:44.996Z,46.00
2018-06-15T00:03:49.983Z,45.90
2018-06-15T00:04:55.154Z,45.90
2018-06-15T00:06:00.446Z,46.00
2018-06-15T00:07:05.459Z,46.00
2018-06-15T00:08:10.585Z,46.00
2018-06-15T00:09:15.592Z,45.90
2018-06-15T00:10:20.894Z,46.10
2018-06-15T00:11:26.049Z,46.00
2018-06-15T00:12:31.404Z,46.00
2018-06-15T00:13:36.629Z,46.00
2018-06-15T00:14:41.739Z,46.00
2018-06-15T00:15:46.815Z,46.00
2018-06-15T00:16:51.891Z,46.00
2018-06-15T00:17:56.940Z,46.00
2018-06-15T00:19:02.061Z,46.00
2018-06-15T00:20:07.064Z,46.00
2018-06-15T00:21:12.162Z,46.10
2018-06-15T00:22:17.331Z,46.00
2018-06-15T00:23:22.430Z,46.00
2018-06-15T00:24:27.513Z,46.10
2018-06-15T00:25:32.614Z,46.10
2018-06-15T00:26:38.426Z,46.10
2018-06-15T00:27:43.431Z,46.10
2018-06-15T00:28:48.552Z,46.10
2018-06-15T00:29:53.568Z,46.10
2018-06-15T00:30:58.539Z,46.00
2018-06-15T00:32:03.580Z,46.00
2018-06-15T00:33:08.723Z,46.00
2018-06-15T00:34:13.661Z,46.00
2018-06-15T00:35:18.701Z,46.10
2018-06-15T00:36:23.640Z,46.10
2018-06-15T00:37:28.895Z,46.00
2018-06-15T00:38:33.825Z,46.10
2018-06-15T00:39:38.886Z,46.10
2018-06-15T00:40:43.971Z,46.10
2018-06-15T00:41:49.110Z,46.10
2018-06-15T00:42:54.172Z,46.10
2018-06-15T00:43:59.268Z,46.10
2018-06-15T00:45:04.314Z,46.10
2018-06-15T00:46:10.140Z,46.10
2018-06-15T00:47:15.397Z,46.10
2018-06-15T00:48:20.397Z,46.10
2018-06-15T00:49:25.451Z,46.20
2018-06-15T00:50:30.654Z,46.10
2018-06-15T00:51:35.705Z,46.10
2018-06-15T00:52:40.799Z,46.10
2018-06-15T00:53:45.721Z,46.20
2018-06-15T00:54:50.762Z,46.10
2018-06-15T00:55:55.772Z,46.10
2018-06-15T00:57:00.848Z,46.10
2018-06-15T00:58:05.778Z,46.10
2018-06-15T00:59:10.818Z,46.20
2018-06-15T01:00:15.807Z,46.10
2018-06-15T01:01:20.776Z,46.10
2018-06-15T01:02:25.866Z,46.10
2018-06-15T01:03:30.890Z,46.10
2018-06-15T01:04:35.957Z,46.10
2018-06-15T01:05:40.948Z,46.20
2018-06-15T01:06:45.921Z,46.20
2018-06-15T01:07:51.061Z,46.10
2018-06-15T01:08:56.051Z,46.20
2018-06-15T01:10:00.962Z,46.10
2018-06-15T01:11:06.049Z,46.10
2018-06-15T01:12:10.997Z,46.10
2018-06-15T01:13:16.022Z,46.20
2018-06-15T01:14:20.943Z,46.20
2018-06-15T01:15:25.866Z,46.20
2018-06-15T01:16:31.027Z,46.20
2018-06-15T01:17:36.084Z,46.20
2018-06-15T01:18:41.421Z,46.20
2018-06-15T01:19:46.433Z,46.20
2018-06-15T01:20:51.605Z,46.20
2018-06-15T01:21:56.527Z,46.20
2018-06-15T01:23:01.569Z,46.20
2018-06-15T01:24:06.642Z,46.20
2018-06-15T01:25:11.586Z,46.20
2018-06-15T01:26:16.718Z,46.20
2018-06-15T01:27:21.778Z,46.10
2018-06-15T01:28:26.753Z,46.10
2018-06-15T01:29:31.707Z,46.20
2018-06-15T01:30:37.675Z,46.30
2018-06-15T01:31:42.653Z,46.90
2018-06-15T01:32:47.601Z,46.20
2018-06-15T01:33:52.542Z,46.20
2018-06-15T01:34:57.635Z,46.30
2018-06-15T01:36:03.281Z,46.30
2018-06-15T01:37:08.254Z,46.30
2018-06-15T01:38:13.334Z,46.30
2018-06-15T01:39:18.317Z,46.30
2018-06-15T01:40:23.345Z,46.30
2018-06-15T01:41:28.330Z,46.30
2018-06-15T01:42:33.293Z,46.30
2018-06-15T01:43:38.429Z,46.30
2018-06-15T01:44:43.496Z,46.40
2018-06-15T01:45:48.716Z,46.40
2018-06-15T01:46:53.688Z,46.40
2018-06-15T01:47:58.733Z,46.40
2018-06-15T01:49:03.803Z,46.40
2018-06-15T01:50:08.879Z,46.40
2018-06-15T01:51:14.202Z,46.40
2018-06-15T01:52:19.274Z,46.40
2018-06-15T01:53:24.279Z,46.40
2018-06-15T01:54:29.226Z,47.00
2018-06-15T01:55:34.447Z,46.30
2018-06-15T01:56:39.629Z,46.40
2018-06-15T01:57:44.685Z,46.40
2018-06-15T01:58:49.827Z,46.30
2018-06-15T02:00:06.751Z,46.50
2018-06-15T02:01:11.878Z,46.50
2018-06-15T02:02:16.775Z,46.50
2018-06-15T02:03:22.027Z,46.40
2018-06-15T02:04:27.241Z,46.50
2018-06-15T02:05:32.541Z,46.50
2018-06-15T02:06:37.704Z,46.50
2018-06-15T02:07:42.749Z,46.50
2018-06-15T02:08:47.651Z,46.50
2018-06-15T02:09:52.651Z,46.50
2018-06-15T02:10:58.243Z,46.60
2018-06-15T02:12:03.418Z,46.50
2018-06-15T02:13:08.514Z,46.50
2018-06-15T02:14:13.574Z,46.40
2018-06-15T02:15:18.571Z,46.50
2018-06-15T02:16:23.598Z,46.50
2018-06-15T02:17:28.797Z,46.60
2018-06-15T02:18:34.198Z,46.60
2018-06-15T02:19:39.184Z,46.50
2018-06-15T02:20:44.250Z,46.60
2018-06-15T02:21:49.071Z,46.60
2018-06-15T02:22:53.854Z,46.60
2018-06-15T02:23:58.801Z,46.60
2018-06-15T02:25:03.806Z,46.60
2018-06-15T02:26:08.712Z,46.60
2018-06-15T02:27:13.798Z,46.60
2018-06-15T02:28:18.776Z,46.60
2018-06-15T02:29:23.910Z,46.60
2018-06-15T02:30:28.886Z,46.60
2018-06-15T02:31:33.820Z,46.60
2018-06-15T02:32:38.853Z,46.70
2018-06-15T02:33:43.988Z,46.60
2018-06-15T02:34:49.099Z,46.60
2018-06-15T02:35:53.993Z,46.60
2018-06-15T02:36:59.160Z,46.60
2018-06-15T02:38:04.188Z,46.60
2018-06-15T02:39:09.421Z,46.60
2018-06-15T02:40:14.308Z,46.60
2018-06-15T02:41:19.377Z,46.70
2018-06-15T02:42:24.211Z,46.70
2018-06-15T02:43:29.338Z,46.70
2018-06-15T02:44:34.427Z,46.70
2018-06-15T02:45:39.348Z,46.70
2018-06-15T02:46:44.418Z,46.70
2018-06-15T02:47:49.427Z,46.70
2018-06-15T02:48:54.446Z,46.70
2018-06-15T02:49:59.370Z,46.80
2018-06-15T02:51:04.262Z,46.70
2018-06-15T02:52:09.222Z,46.70
2018-06-15T02:53:14.189Z,46.70
2018-06-15T02:54:19.266Z,46.70
2018-06-15T02:55:24.272Z,46.70
2018-06-15T02:56:29.140Z,46.70
2018-06-15T02:57:34.224Z,46.70
2018-06-15T02:58:39.243Z,46.70
2018-06-15T02:59:44.183Z,46.70
2018-06-15T03:00:49.179Z,46.70
2018-06-15T03:01:54.144Z,46.70
2018-06-15T03:02:59.745Z,46.70
2018-06-15T03:04:04.653Z,46.70
2018-06-15T03:05:09.676Z,46.70
2018-06-15T03:06:14.682Z,46.70
2018-06-15T03:07:19.647Z,46.80
2018-06-15T03:08:24.781Z,46.80
2018-06-15T03:09:29.843Z,46.80
2018-06-15T03:10:34.817Z,46.70
2018-06-15T03:11:39.829Z,46.80
2018-06-15T03:12:44.732Z,46.80
2018-06-15T03:13:49.786Z,46.80
2018-06-15T03:14:54.922Z,46.80
2018-06-15T03:15:59.984Z,46.80
2018-06-15T03:17:04.905Z,46.80
2018-06-15T03:18:09.934Z,46.80
2018-06-15T03:19:14.940Z,46.80
2018-06-15T03:20:20.082Z,46.80
2018-06-15T03:21:25.016Z,46.80
2018-06-15T03:22:29.963Z,46.80
2018-06-15T03:23:35.039Z,46.80
2018-06-15T03:24:40.018Z,46.80
2018-06-15T03:25:44.912Z,46.80
2018-06-15T03:26:49.871Z,46.90
2018-06-15T03:27:54.986Z,46.80
2018-06-15T03:28:59.968Z,46.90
2018-06-15T03:30:04.842Z,46.80
2018-06-15T03:31:09.963Z,46.80
2018-06-15T03:32:14.876Z,46.80
2018-06-15T03:33:20.003Z,46.80
2018-06-15T03:34:24.955Z,46.90
2018-06-15T03:35:29.956Z,46.80
2018-06-15T03:36:34.740Z,46.80
2018-06-15T03:37:40.041Z,46.90
2018-06-15T03:38:45.139Z,46.90
2018-06-15T03:39:49.999Z,46.90
2018-06-15T03:40:55.088Z,46.90
2018-06-15T03:41:59.996Z,46.90
2018-06-15T03:43:05.098Z,46.90
2018-06-15T03:44:10.274Z,46.90
2018-06-15T03:45:15.251Z,46.90
2018-06-15T03:46:20.353Z,46.90
2018-06-15T03:47:25.314Z,46.90
2018-06-15T03:48:30.333Z,46.90
2018-06-15T03:49:35.270Z,46.90
2018-06-15T03:50:40.239Z,46.90
2018-06-15T03:51:45.300Z,46.90
2018-06-15T03:52:50.075Z,46.90
2018-06-15T03:53:54.996Z,46.90
2018-06-15T03:55:00.149Z,46.90
2018-06-15T03:56:05.159Z,46.90
2018-06-15T03:57:10.230Z,46.90
2018-06-15T03:58:15.124Z,46.90
2018-06-15T03:59:20.162Z,46.90
2018-06-15T04:00:25.196Z,46.90
2018-06-15T04:01:30.069Z,47.00
2018-06-15T04:02:34.978Z,47.00
2018-06-15T04:03:40.087Z,47.00
2018-06-15T04:04:45.099Z,47.00
2018-06-15T04:05:49.927Z,47.00
2018-06-15T04:06:55.012Z,47.00
2018-06-15T04:08:00.059Z,47.00
2018-06-15T04:09:04.889Z,47.00
2018-06-15T04:10:09.847Z,47.00
2018-06-15T04:11:16.671Z,47.00
2018-06-15T04:12:21.774Z,47.00
2018-06-15T04:13:27.155Z,47.00
2018-06-15T04:14:32.174Z,47.00
2018-06-15T04:15:37.297Z,47.00
2018-06-15T04:16:42.378Z,46.90
2018-06-15T04:17:47.440Z,46.90
2018-06-15T04:18:52.476Z,47.00
2018-06-15T04:19:57.435Z,47.00
2018-06-15T04:21:02.692Z,47.00
2018-06-15T04:22:07.854Z,47.00
2018-06-15T04:23:12.616Z,47.00
2018-06-15T04:24:17.433Z,47.00
2018-06-15T04:25:22.424Z,47.00
2018-06-15T04:26:27.526Z,47.00
2018-06-15T04:27:32.496Z,47.60
2018-06-15T04:28:37.419Z,47.00
2018-06-15T04:29:42.459Z,47.00
2018-06-15T04:30:47.380Z,47.00
2018-06-15T04:31:52.367Z,47.00
2018-06-15T04:32:57.336Z,47.00
2018-06-15T04:34:02.265Z,47.00
2018-06-15T04:35:07.332Z,47.00
2018-06-15T04:36:12.347Z,46.90
2018-06-15T04:37:17.377Z,47.00
2018-06-15T04:38:22.336Z,47.00
2018-06-15T04:39:27.457Z,47.00
2018-06-15T04:40:32.527Z,47.00
2018-06-15T04:41:37.354Z,47.00
2018-06-15T04:42:42.514Z,47.00
2018-06-15T04:43:48.057Z,47.00
2018-06-15T04:44:53.086Z,47.00
2018-06-15T04:45:58.476Z,47.00
2018-06-15T04:47:03.563Z,46.90
2018-06-15T04:48:08.629Z,47.00
2018-06-15T04:49:13.796Z,47.00
2018-06-15T04:50:18.871Z,47.00
2018-06-15T04:51:23.918Z,47.00
2018-06-15T04:52:28.793Z,47.00
2018-06-15T04:53:33.682Z,47.00
2018-06-15T04:54:38.640Z,47.00
2018-06-15T04:55:43.799Z,47.00
2018-06-15T04:56:49.042Z,47.00
2018-06-15T04:57:54.011Z,47.00
2018-06-15T04:58:59.171Z,47.00
2018-06-15T05:00:04.304Z,47.00
2018-06-15T05:01:09.349Z,47.00
2018-06-15T05:02:14.282Z,46.90
2018-06-15T05:03:19.913Z,46.90
2018-06-15T05:04:25.037Z,47.00
2018-06-15T05:05:30.161Z,47.00
2018-06-15T05:06:35.312Z,47.00
2018-06-15T05:07:40.295Z,47.00
2018-06-15T05:08:45.227Z,47.00
2018-06-15T05:09:50.323Z,47.00
2018-06-15T05:10:55.483Z,47.00
2018-06-15T05:12:00.559Z,47.00
2018-06-15T05:13:05.524Z,47.00
2018-06-15T05:14:10.573Z,46.90
2018-06-15T05:15:15.633Z,46.90
2018-06-15T05:16:20.753Z,47.10
2018-06-15T05:17:25.755Z,47.30
2018-06-15T05:18:30.685Z,47.70
2018-06-15T05:19:35.829Z,48.60
2018-06-15T05:20:41.056Z,48.10
2018-06-15T05:21:45.933Z,48.20
2018-06-15T05:22:52.709Z,48.30
2018-06-15T05:23:57.723Z,48.40
2018-06-15T05:25:02.736Z,48.50
2018-06-15T05:26:07.691Z,48.60
2018-06-15T05:27:12.762Z,48.70
2018-06-15T05:28:18.123Z,48.70
2018-06-15T05:29:23.140Z,48.80
2018-06-15T05:30:28.301Z,48.80
2018-06-15T05:31:33.201Z,48.80
2018-06-15T05:32:38.188Z,48.70
2018-06-15T05:33:43.306Z,48.80
2018-06-15T05:34:48.338Z,48.70
2018-06-15T05:35:53.403Z,48.70
2018-06-15T05:36:58.379Z,48.80
2018-06-15T05:38:03.452Z,48.80
2018-06-15T05:39:08.640Z,48.70
2018-06-15T05:40:13.819Z,48.70
2018-06-15T05:41:18.977Z,48.70
2018-06-15T05:42:24.000Z,48.80
2018-06-15T05:43:29.098Z,48.60
2018-06-15T05:44:34.227Z,48.60
2018-06-15T05:45:39.301Z,48.70
2018-06-15T05:46:44.391Z,48.70
2018-06-15T05:47:49.554Z,48.70
2018-06-15T05:48:54.610Z,48.80
2018-06-15T05:49:59.846Z,48.80
2018-06-15T05:51:04.956Z,48.90
2018-06-15T05:52:10.109Z,48.80
2018-06-15T05:53:15.060Z,48.90
2018-06-15T05:54:20.270Z,48.80
2018-06-15T05:55:25.175Z,48.80
2018-06-15T05:56:30.340Z,48.80
2018-06-15T05:57:35.234Z,48.80
2018-06-15T05:58:40.564Z,48.80
2018-06-15T05:59:45.624Z,48.80
2018-06-15T06:00:50.513Z,48.70
2018-06-15T06:01:55.564Z,48.70
2018-06-15T06:03:00.633Z,48.60
2018-06-15T06:04:05.566Z,48.50
2018-06-15T06:05:10.393Z,48.40
2018-06-15T06:06:15.547Z,48.30
2018-06-15T06:07:20.454Z,48.30
2018-06-15T06:08:25.508Z,48.20
2018-06-15T06:09:30.352Z,48.20
2018-06-15T06:10:35.404Z,48.10
2018-06-15T06:11:40.606Z,48.10
2018-06-15T06:12:45.830Z,48.10
2018-06-15T06:13:50.866Z,48.10
2018-06-15T06:14:55.958Z,48.10
2018-06-15T06:16:00.925Z,48.10
2018-06-15T06:17:05.947Z,48.10
2018-06-15T06:18:11.269Z,48.00
2018-06-15T06:19:16.507Z,47.80
2018-06-15T06:20:21.599Z,47.90
2018-06-15T06:21:26.517Z,47.80
2018-06-15T06:22:31.618Z,47.80
2018-06-15T06:23:36.957Z,47.90
2018-06-15T06:24:42.022Z,47.90
2018-06-15T06:25:46.990Z,47.90
2018-06-15T06:26:52.120Z,47.80
2018-06-15T06:27:57.198Z,47.80
2018-06-15T06:29:02.177Z,47.70
2018-06-15T06:30:07.217Z,47.70
2018-06-15T06:31:12.353Z,47.70
2018-06-15T06:32:17.406Z,47.70
2018-06-15T06:33:22.647Z,47.70
2018-06-15T06:34:27.742Z,47.70
2018-06-15T06:35:32.660Z,47.70
2018-06-15T06:36:38.825Z,47.60
2018-06-15T06:37:44.044Z,47.50
2018-06-15T06:38:50.197Z,47.50
2018-06-15T06:39:55.179Z,47.50
2018-06-15T06:41:00.101Z,47.40
2018-06-15T06:42:05.131Z,47.40
2018-06-15T06:43:10.166Z,47.30
2018-06-15T06:44:15.082Z,47.20
2018-06-15T06:45:19.900Z,47.20
2018-06-15T06:46:24.866Z,47.20
2018-06-15T06:47:29.975Z,47.10
2018-06-15T06:48:35.042Z,47.10
2018-06-15T06:49:40.213Z,47.20
2018-06-15T06:50:45.277Z,47.20
2018-06-15T06:51:50.298Z,47.10
2018-06-15T06:52:55.237Z,47.20
2018-06-15T06:54:00.191Z,47.10
2018-06-15T06:55:05.236Z,47.00
2018-06-15T06:56:10.271Z,47.10
2018-06-15T06:57:15.413Z,47.00
2018-06-15T06:58:20.368Z,47.00
2018-06-15T06:59:25.503Z,47.00
2018-06-15T07:00:30.383Z,47.00
2018-06-15T07:01:35.470Z,47.00
2018-06-15T07:02:40.519Z,46.90
2018-06-15T07:03:45.387Z,46.80
2018-06-15T07:04:50.421Z,46.70
2018-06-15T07:05:55.432Z,46.60
2018-06-15T07:07:00.520Z,46.60
2018-06-15T07:08:05.589Z,46.60
2018-06-15T07:09:10.541Z,46.60
2018-06-15T07:10:15.564Z,46.60
2018-06-15T07:11:20.383Z,46.60
2018-06-15T07:12:25.438Z,46.60
2018-06-15T07:13:30.417Z,46.60
2018-06-15T07:14:35.520Z,46.40
2018-06-15T07:15:40.791Z,46.40
2018-06-15T07:16:45.865Z,46.30
2018-06-15T07:17:51.255Z,46.20
2018-06-15T07:18:56.317Z,46.20
2018-06-15T07:20:01.439Z,46.10
2018-06-15T07:21:06.336Z,46.10
2018-06-15T07:22:11.401Z,46.00
2018-06-15T07:23:16.381Z,45.80
2018-06-15T07:24:21.596Z,45.70
2018-06-15T07:25:26.539Z,45.70
2018-06-15T07:26:31.687Z,45.70
2018-06-15T07:27:36.727Z,45.60
2018-06-15T07:28:41.573Z,45.60
2018-06-15T07:29:46.620Z,45.60
2018-06-15T07:30:51.745Z,45.50
2018-06-15T07:31:56.856Z,45.40
2018-06-15T07:33:01.970Z,45.40
2018-06-15T07:34:07.109Z,45.40
2018-06-15T07:35:12.217Z,45.40
2018-06-15T07:36:17.128Z,45.30
2018-06-15T07:37:22.253Z,45.30
2018-06-15T07:38:27.395Z,45.30
2018-06-15T07:39:32.511Z,45.30
2018-06-15T07:40:37.581Z,45.20
2018-06-15T07:41:42.682Z,45.10
2018-06-15T07:42:47.788Z,45.20
2018-06-15T07:43:52.688Z,45.10
2018-06-15T07:44:57.544Z,44.90
2018-06-15T07:46:02.593Z,44.80
2018-06-15T07:47:07.708Z,44.40
2018-06-15T07:48:12.615Z,43.90
2018-06-15T07:49:17.564Z,43.90
2018-06-15T07:50:22.447Z,43.80
2018-06-15T07:51:27.573Z,43.60
2018-06-15T07:52:32.692Z,43.80
2018-06-15T07:53:37.514Z,43.70
2018-06-15T07:54:42.877Z,43.80
2018-06-15T07:55:47.773Z,43.90
2018-06-15T07:56:52.593Z,43.80
2018-06-15T07:57:57.627Z,43.10
2018-06-15T07:59:02.789Z,43.30
2018-06-15T08:00:07.838Z,43.50
2018-06-15T08:01:12.649Z,43.60
2018-06-15T08:02:17.851Z,43.50
2018-06-15T08:03:22.880Z,43.50
2018-06-15T08:04:27.820Z,42.50
2018-06-15T08:05:32.974Z,42.00
2018-06-15T08:06:38.100Z,42.30
2018-06-15T08:07:43.400Z,42.70
2018-06-15T08:08:48.438Z,42.80
2018-06-15T08:09:53.228Z,43.00
2018-06-15T08:10:58.299Z,42.80
2018-06-15T08:12:03.233Z,42.90
2018-06-15T08:13:08.363Z,43.00
2018-06-15T08:14:13.223Z,42.90
2018-06-15T08:15:18.032Z,43.00
2018-06-15T08:16:23.098Z,42.90
2018-06-15T08:17:27.976Z,43.00
2018-06-15T08:18:32.932Z,42.80
2018-06-15T08:19:37.926Z,42.90
2018-06-15T08:20:42.833Z,42.90
2018-06-15T08:21:47.669Z,42.80
2018-06-15T08:22:52.547Z,42.80
2018-06-15T08:23:57.664Z,42.80
2018-06-15T08:25:02.698Z,42.90
2018-06-15T08:26:07.644Z,42.90
2018-06-15T08:27:12.541Z,42.90
2018-06-15T08:28:17.578Z,42.90
2018-06-15T08:29:22.536Z,42.90
2018-06-15T08:30:27.604Z,42.90
2018-06-15T08:31:32.618Z,42.90
2018-06-15T08:32:37.472Z,42.80
2018-06-15T08:33:42.480Z,42.80
2018-06-15T08:34:47.404Z,42.80
2018-06-15T08:35:52.133Z,42.80
2018-06-15T08:36:57.059Z,42.80
2018-06-15T08:38:01.984Z,42.80
2018-06-15T08:39:07.015Z,42.80
2018-06-15T08:40:12.057Z,42.80
2018-06-15T08:41:16.949Z,42.90
2018-06-15T08:42:22.145Z,42.80
2018-06-15T08:43:27.134Z,42.90
2018-06-15T08:44:31.977Z,42.70
2018-06-15T08:45:36.864Z,42.70
2018-06-15T08:46:41.894Z,42.60
2018-06-15T08:47:46.640Z,42.60
2018-06-15T08:48:51.687Z,42.50
2018-06-15T08:49:56.489Z,42.40
2018-06-15T08:51:01.453Z,42.40
2018-06-15T08:52:06.301Z,42.40
2018-06-15T08:53:11.207Z,42.30
2018-06-15T08:54:16.249Z,42.20
2018-06-15T08:55:21.559Z,42.20
2018-06-15T08:56:26.581Z,42.20
2018-06-15T08:57:31.627Z,42.10
2018-06-15T08:58:36.732Z,42.00
2018-06-15T08:59:42.552Z,42.00
2018-06-15T09:00:47.619Z,41.90
2018-06-15T09:01:52.808Z,41.90
2018-06-15T09:02:57.977Z,41.90
2018-06-15T09:04:03.063Z,41.80
2018-06-15T09:05:07.912Z,41.80
2018-06-15T09:06:12.874Z,41.70
2018-06-15T09:07:17.781Z,41.80
2018-06-15T09:08:23.012Z,41.70
2018-06-15T09:09:27.859Z,41.60
2018-06-15T09:10:32.818Z,41.60
2018-06-15T09:11:37.923Z,41.90
2018-06-15T09:12:42.973Z,41.90
2018-06-15T09:13:47.853Z,41.60
2018-06-15T09:14:52.704Z,41.60
2018-06-15T09:15:57.833Z,41.60
2018-06-15T09:17:02.899Z,41.60
2018-06-15T09:18:07.909Z,41.60
2018-06-15T09:19:13.059Z,41.70
2018-06-15T09:20:18.119Z,41.70
2018-06-15T09:21:23.264Z,41.60
2018-06-15T09:22:28.348Z,41.70
2018-06-15T09:23:33.457Z,41.70
2018-06-15T09:24:38.441Z,41.50
2018-06-15T09:25:43.578Z,41.60
2018-06-15T09:26:48.767Z,41.50
2018-06-15T09:27:53.864Z,41.50
2018-06-15T09:28:59.036Z,41.50
2018-06-15T09:30:04.044Z,41.40
2018-06-15T09:31:09.046Z,41.30
2018-06-15T09:32:14.237Z,41.30
2018-06-15T09:33:19.489Z,41.20
2018-06-15T09:34:24.515Z,41.20
2018-06-15T09:35:29.574Z,41.20
2018-06-15T09:36:34.580Z,41.20
2018-06-15T09:37:39.609Z,41.10
2018-06-15T09:38:44.691Z,41.20
2018-06-15T09:39:49.890Z,41.30
2018-06-15T09:40:54.847Z,41.30
2018-06-15T09:41:59.833Z,41.30
2018-06-15T09:43:04.795Z,41.30
2018-06-15T09:44:10.045Z,41.20
2018-06-15T09:45:15.221Z,41.20
2018-06-15T09:46:20.320Z,41.30
2018-06-15T09:47:25.210Z,41.30
2018-06-15T09:48:30.254Z,41.30
2018-06-15T09:49:35.409Z,41.20
2018-06-15T09:50:41.735Z,41.20
2018-06-15T09:51:46.961Z,41.10
2018-06-15T09:52:52.232Z,41.20
2018-06-15T09:53:57.655Z,41.10
2018-06-15T09:55:02.519Z,41.10
2018-06-15T09:56:07.842Z,41.10
2018-06-15T09:57:12.600Z,41.00
2018-06-15T09:58:17.433Z,41.00
2018-06-15T09:59:22.720Z,40.90
2018-06-15T10:00:27.549Z,40.90
2018-06-15T10:01:32.452Z,40.90
2018-06-15T10:02:37.783Z,40.70
2018-06-15T10:03:42.791Z,40.70
2018-06-15T10:04:47.612Z,40.70
2018-06-15T10:05:52.549Z,40.70
2018-06-15T10:06:57.397Z,40.70
2018-06-15T10:08:02.671Z,40.70
2018-06-15T10:09:07.599Z,40.80
2018-06-15T10:10:12.695Z,40.80
2018-06-15T10:11:18.636Z,40.80
2018-06-15T10:12:23.724Z,40.80
2018-06-15T10:13:28.842Z,40.70
2018-06-15T10:14:34.179Z,40.80
2018-06-15T10:15:39.096Z,40.80
2018-06-15T10:16:44.052Z,40.80
2018-06-15T10:17:49.266Z,40.90
2018-06-15T10:18:54.165Z,40.80
2018-06-15T10:19:59.038Z,40.80
2018-06-15T10:21:04.017Z,40.80
2018-06-15T10:22:08.948Z,40.80
2018-06-15T10:23:13.845Z,40.90
2018-06-15T10:24:18.794Z,40.90
2018-06-15T10:25:23.986Z,40.90
2018-06-15T10:26:29.282Z,40.80
2018-06-15T10:27:34.402Z,40.90
2018-06-15T10:28:39.706Z,40.80
2018-06-15T10:29:44.768Z,40.80
2018-06-15T10:30:50.052Z,40.80
2018-06-15T10:31:55.233Z,40.80
2018-06-15T10:33:00.379Z,40.80
2018-06-15T10:34:05.675Z,40.80
2018-06-15T10:35:10.813Z,40.80
2018-06-15T10:36:15.896Z,40.80
2018-06-15T10:37:21.090Z,40.70
2018-06-15T10:38:26.204Z,40.70
2018-06-15T10:39:34.220Z,40.70
2018-06-15T10:40:39.536Z,40.60
2018-06-15T10:41:44.546Z,40.60
2018-06-15T10:42:49.451Z,40.60
2018-06-15T10:43:54.277Z,40.60
2018-06-15T10:44:59.140Z,40.60
2018-06-15T10:46:04.027Z,41.20
2018-06-15T10:47:08.975Z,40.50
2018-06-15T10:48:14.086Z,40.50
2018-06-15T10:49:19.197Z,40.40
2018-06-15T10:50:23.999Z,40.40
2018-06-15T10:51:28.912Z,40.40
2018-06-15T10:52:34.007Z,40.40
2018-06-15T10:53:39.060Z,40.40
2018-06-15T10:54:43.994Z,40.40
2018-06-15T10:55:48.979Z,40.40
2018-06-15T10:56:57.181Z,40.30
2018-06-15T10:58:02.263Z,40.30
2018-06-15T10:59:07.284Z,40.40
2018-06-15T11:00:12.127Z,40.40
2018-06-15T11:01:17.144Z,40.40
2018-06-15T11:02:22.103Z,40.40
2018-06-15T11:03:27.122Z,40.40
2018-06-15T11:04:32.170Z,40.40
2018-06-15T11:05:37.225Z,40.40
2018-06-15T11:06:42.057Z,40.50
2018-06-15T11:07:47.071Z,40.50
2018-06-15T11:08:52.219Z,40.50
2018-06-15T11:09:57.367Z,40.40
2018-06-15T11:11:02.202Z,40.50
2018-06-15T11:12:07.066Z,40.50
2018-06-15T11:13:12.180Z,40.50
2018-06-15T11:14:17.006Z,40.50
2018-06-15T11:15:21.918Z,40.50
2018-06-15T11:16:27.006Z,40.50
2018-06-15T11:17:31.928Z,40.50
2018-06-15T11:18:36.785Z,40.50
2018-06-15T11:19:41.679Z,40.50
2018-06-15T11:20:46.777Z,40.60
2018-06-15T11:21:51.751Z,40.50
2018-06-15T11:22:56.687Z,40.50
2018-06-15T11:24:01.670Z,40.50
2018-06-15T11:25:06.507Z,40.40
2018-06-15T11:26:11.304Z,40.40
2018-06-15T11:27:16.202Z,40.40
2018-06-15T11:28:21.213Z,40.40
2018-06-15T11:29:26.983Z,40.40
2018-06-15T11:30:31.997Z,40.40
2018-06-15T11:31:36.947Z,40.40
2018-06-15T11:32:41.983Z,40.30
2018-06-15T11:33:47.036Z,40.40
2018-06-15T11:34:51.932Z,40.30
2018-06-15T11:35:56.913Z,40.30
2018-06-15T11:37:01.729Z,40.30
2018-06-15T11:38:06.653Z,40.30
2018-06-15T11:39:11.544Z,40.30
2018-06-15T11:40:16.380Z,40.30
2018-06-15T11:41:21.299Z,40.30
2018-06-15T11:42:26.240Z,40.30
2018-06-15T11:43:31.191Z,40.30
2018-06-15T11:44:36.275Z,40.30
2018-06-15T11:45:41.177Z,40.30
2018-06-15T11:46:46.191Z,40.20
2018-06-15T11:47:51.177Z,40.30
2018-06-15T11:48:56.104Z,40.30
2018-06-15T11:50:00.953Z,40.30
2018-06-15T11:51:05.973Z,40.30
2018-06-15T11:52:11.106Z,40.30
2018-06-15T11:53:15.965Z,40.30
2018-06-15T11:54:20.792Z,40.20
2018-06-15T11:55:25.666Z,40.20
2018-06-15T11:56:30.771Z,40.20
2018-06-15T11:57:35.697Z,40.20
2018-06-15T11:58:40.768Z,40.20
2018-06-15T11:59:45.809Z,40.20
2018-06-15T12:00:50.955Z,40.20
2018-06-15T12:01:56.096Z,40.20
2018-06-15T12:03:01.047Z,40.20
2018-06-15T12:04:06.298Z,40.20
2018-06-15T12:05:11.294Z,40.20
2018-06-15T12:06:16.414Z,40.20
2018-06-15T12:07:21.379Z,40.30
2018-06-15T12:08:26.936Z,40.20
2018-06-15T12:09:32.103Z,40.20
2018-06-15T12:10:37.036Z,40.20
2018-06-15T12:11:42.085Z,40.20
2018-06-15T12:12:47.174Z,40.20
2018-06-15T12:13:52.253Z,40.20
2018-06-15T12:14:57.077Z,40.20
2018-06-15T12:16:02.000Z,40.20
2018-06-15T12:17:07.006Z,40.20
2018-06-15T12:18:12.209Z,40.20
2018-06-15T12:19:17.271Z,40.30
2018-06-15T12:20:22.253Z,40.20
2018-06-15T12:21:27.176Z,40.20
2018-06-15T12:22:32.032Z,40.30
2018-06-15T12:23:36.939Z,40.30
2018-06-15T12:24:41.758Z,40.30
2018-06-15T12:25:46.744Z,40.20
2018-06-15T12:26:51.966Z,40.30
2018-06-15T12:27:57.020Z,40.10
2018-06-15T12:29:02.074Z,40.10
2018-06-15T12:30:07.038Z,40.20
2018-06-15T12:31:13.347Z,40.20
2018-06-15T12:32:18.623Z,40.30
2018-06-15T12:33:23.620Z,40.30
2018-06-15T12:34:28.983Z,40.30
2018-06-15T12:35:33.983Z,40.20
2018-06-15T12:36:39.224Z,40.30
2018-06-15T12:37:44.055Z,40.30
2018-06-15T12:38:48.905Z,40.20
2018-06-15T12:39:53.977Z,40.20
2018-06-15T12:40:59.047Z,40.20
2018-06-15T12:42:04.282Z,40.20
2018-06-15T12:43:09.439Z,40.20
2018-06-15T12:44:14.184Z,40.20
2018-06-15T12:45:19.028Z,40.20
2018-06-15T12:46:23.892Z,40.20
2018-06-15T12:47:28.730Z,40.10
2018-06-15T12:48:33.743Z,40.20
2018-06-15T12:49:38.890Z,40.20
2018-06-15T12:50:44.180Z,40.20
2018-06-15T12:51:49.054Z,40.30
2018-06-15T12:52:53.874Z,40.20
2018-06-15T12:53:58.783Z,40.20
2018-06-15T12:55:03.663Z,40.20
2018-06-15T12:56:08.769Z,40.20
2018-06-15T12:57:13.762Z,40.20
2018-06-15T12:58:18.793Z,40.20
2018-06-15T12:59:23.785Z,40.20
2018-06-15T13:00:28.733Z,40.20
2018-06-15T13:01:33.799Z,40.20
2018-06-15T13:02:38.939Z,40.10
2018-06-15T13:03:43.909Z,40.10
2018-06-15T13:04:49.225Z,40.10
2018-06-15T13:05:54.475Z,40.10
2018-06-15T13:07:00.720Z,40.00
2018-06-15T13:08:05.805Z,40.00
2018-06-15T13:09:10.922Z,40.10
2018-06-15T13:10:16.078Z,40.10
2018-06-15T13:11:21.322Z,40.10
2018-06-15T13:12:26.446Z,40.00
2018-06-15T13:13:31.449Z,40.00
2018-06-15T13:14:36.554Z,40.00
2018-06-15T13:15:41.644Z,40.00
2018-06-15T13:16:46.697Z,40.00
2018-06-15T13:17:51.676Z,40.00
2018-06-15T13:18:56.690Z,40.00
2018-06-15T13:20:01.864Z,40.00
2018-06-15T13:21:07.068Z,40.00
2018-06-15T13:22:12.141Z,39.90
2018-06-15T13:23:17.120Z,39.90
2018-06-15T13:24:22.048Z,39.90
2018-06-15T13:25:26.925Z,39.90
2018-06-15T13:26:32.022Z,39.90
2018-06-15T13:27:37.019Z,40.50
2018-06-15T13:28:42.008Z,39.90
2018-06-15T13:29:46.981Z,39.90
2018-06-15T13:30:52.038Z,39.90
2018-06-15T13:31:57.002Z,39.90
2018-06-15T13:33:02.016Z,39.90
2018-06-15T13:34:07.022Z,39.90
2018-06-15T13:35:12.191Z,39.90
2018-06-15T13:36:17.303Z,39.90
2018-06-15T13:37:22.446Z,39.90
2018-06-15T13:38:27.555Z,39.90
2018-06-15T13:39:33.162Z,39.90
2018-06-15T13:40:38.281Z,40.00
2018-06-15T13:41:43.587Z,39.90
2018-06-15T13:42:49.193Z,39.90
2018-06-15T13:43:54.335Z,39.90
2018-06-15T13:44:59.722Z,39.90
2018-06-15T13:46:04.730Z,39.90
2018-06-15T13:47:09.738Z,39.90
2018-06-15T13:48:14.523Z,39.90
2018-06-15T13:49:19.557Z,39.80
2018-06-15T13:50:24.529Z,39.90
2018-06-15T13:51:29.425Z,39.90
2018-06-15T13:52:34.418Z,39.90
2018-06-15T13:53:39.531Z,39.90
2018-06-15T13:54:44.478Z,39.90
2018-06-15T13:55:49.537Z,39.90
2018-06-15T13:56:54.459Z,39.90
2018-06-15T13:57:59.587Z,39.90